Time;durP1;ratioP1;P1;durP2;ratioP2;P2;SDS_P1;SDS_P2;PMS_P1;PMS_P2;Temp;Humidity;BMP_temperature;BMP_pressure;BME280_temperature;BME280_humidity;BME280_pressure;Samples;Min_cycle;Max_cycle;Signal;HPM_P1;HPM_P2
2023/05/01 00:01:29;;;;;;;0.20;0.20;;;;;;;15.41;100.00;99660.53;5035394;28;20029;-63
2023/05/01 00:04:00;;;;;;;0.20;0.20;;;;;;;15.29;100.00;99649.78;5035936;28;20025;-63
2023/05/01 00:06:26;;;;;;;0.20;0.20;;;;;;;15.33;100.00;99653.34;5035300;28;20056;-63
2023/05/01 00:08:52;;;;;;;0.20;0.20;;;;;;;15.41;100.00;99657.72;5035429;28;20082;-64
2023/05/01 00:11:20;;;;;;;0.20;0.20;;;;;;;15.33;100.00;99650.53;5035340;28;20033;-64
2023/05/01 00:13:48;;;;;;;0.20;0.20;;;;;;;15.34;100.00;99641.75;5035291;28;20052;-64
2023/05/01 00:16:15;;;;;;;0.20;0.20;;;;;;;15.38;100.00;99636.09;5035290;28;20060;-64
2023/05/01 00:18:41;;;;;;;0.20;0.20;;;;;;;15.39;100.00;99646.09;5035378;28;20025;-64
2023/05/01 00:21:09;;;;;;;0.20;0.20;;;;;;;15.38;100.00;99650.13;5035545;28;20040;-63
2023/05/01 00:23:38;;;;;;;0.20;0.20;;;;;;;15.33;100.00;99639.34;5035465;28;20033;-64
2023/05/01 00:26:03;;;;;;;0.20;0.20;;;;;;;15.37;100.00;99635.31;5035088;28;20028;-64
2023/05/01 00:28:29;;;;;;;0.20;0.20;;;;;;;15.37;100.00;99628.91;5035195;28;20060;-65
2023/05/01 00:30:56;;;;;;;0.20;0.20;;;;;;;15.41;100.00;99624.09;5035378;28;20120;-63
2023/05/01 00:33:24;;;;;;;0.20;0.20;;;;;;;15.38;100.00;99619.28;5035672;28;20029;-63
2023/05/01 00:35:50;;;;;;;0.20;0.20;;;;;;;15.43;100.00;99616.06;5037574;28;20482;-63
2023/05/01 00:38:15;;;;;;;0.20;0.20;;;;;;;15.43;100.00;99610.44;5039191;28;20032;-63
2023/05/01 00:40:47;;;;;;;0.20;0.20;;;;;;;15.53;100.00;99598.38;5038846;28;20033;-63
2023/05/01 00:43:15;;;;;;;0.20;0.20;;;;;;;15.58;100.00;99595.13;5039355;28;20391;-65
2023/05/01 00:45:45;;;;;;;0.20;0.20;;;;;;;15.62;100.00;99598.72;5038892;28;20025;-63
2023/05/01 00:48:13;;;;;;;0.20;0.20;;;;;;;15.57;100.00;99599.16;5038724;28;20107;-64
2023/05/01 00:50:39;;;;;;;0.20;0.20;;;;;;;15.49;100.00;99596.78;5038634;28;20033;-64
2023/05/01 00:53:08;;;;;;;0.20;0.20;;;;;;;15.49;100.00;99602.41;5038777;28;20179;-63
2023/05/01 00:55:34;;;;;;;0.20;0.20;;;;;;;15.35;100.00;99592.88;5038851;28;20048;-65
2023/05/01 00:58:02;;;;;;;0.20;0.20;;;;;;;15.37;100.00;99596.06;5039049;28;20047;-63
2023/05/01 01:00:31;;;;;;;0.20;0.20;;;;;;;15.33;100.00;99588.88;5038418;28;20029;-65
2023/05/01 01:02:59;;;;;;;0.20;0.20;;;;;;;15.35;100.00;99598.50;5038824;28;20037;-65
2023/05/01 01:05:29;;;;;;;0.20;0.20;;;;;;;15.35;100.00;99592.09;5038156;28;20021;-65
2023/05/01 01:08:26;;;;;;;0.20;0.20;;;;;;;15.26;100.00;99566.50;5038183;28;20040;-64
2023/05/01 01:11:20;;;;;;;0.20;0.20;;;;;;;15.42;100.00;99586.44;5038179;28;20091;-64
2023/05/01 01:13:57;;;;;;;0.20;0.20;;;;;;;15.31;100.00;99577.28;5038125;28;20029;-64
2023/05/01 01:16:45;;;;;;;0.20;0.20;;;;;;;15.31;100.00;99585.69;5056250;28;20028;-64
2023/05/01 01:19:25;;;;;;;0.20;0.20;;;;;;;15.10;100.00;99583.81;5038062;28;20025;-64
2023/05/01 01:22:02;;;;;;;0.20;0.20;;;;;;;15.11;100.00;99577.00;5038013;28;20029;-64
2023/05/01 01:25:05;;;;;;;0.20;0.20;;;;;;;15.15;100.00;99578.59;5038574;28;20459;-65
2023/05/01 01:27:58;;;;;;;0.20;0.20;;;;;;;15.19;100.00;99568.16;5037921;28;20033;-65
2023/05/01 01:31:03;;;;;;;0.20;0.20;;;;;;;15.20;100.00;99569.75;5038678;28;20036;-64
2023/05/01 01:33:47;;;;;;;0.20;0.20;;;;;;;15.15;100.00;99570.19;5037858;28;20091;-66
2023/05/01 01:36:46;;;;;;;0.20;0.20;;;;;;;15.20;100.00;99571.75;5037840;28;20029;-64
2023/05/01 01:39:33;;;;;;;0.20;0.20;;;;;;;15.18;100.00;99577.78;4986667;28;20040;-65
2023/05/01 01:42:02;;;;;;;0.20;0.20;;;;;;;15.28;100.00;99564.88;5037607;28;20100;-63
2023/05/01 01:44:30;;;;;;;0.20;0.20;;;;;;;15.36;100.00;99563.66;5056103;28;20047;-63
2023/05/01 01:47:00;;;;;;;0.20;0.20;;;;;;;15.25;100.00;99559.31;5037989;28;20036;-63
2023/05/01 01:49:28;;;;;;;0.20;0.20;;;;;;;15.28;100.00;99559.28;5037549;28;20032;-63
2023/05/01 01:52:02;;;;;;;0.20;0.20;;;;;;;15.08;100.00;99570.22;5055058;28;20112;-63
2023/05/01 01:54:41;;;;;;;0.20;0.20;;;;;;;15.07;100.00;99551.78;5054988;28;20456;-63
2023/05/01 01:57:10;;;;;;;0.20;0.20;;;;;;;15.02;100.00;99552.25;5037863;28;20076;-65
2023/05/01 01:59:40;;;;;;;0.20;0.20;;;;;;;15.12;100.00;99544.97;5037231;28;20040;-64
2023/05/01 02:02:07;;;;;;;0.20;0.20;;;;;;;15.05;100.00;99551.41;5037242;28;20028;-62
2023/05/01 02:04:38;;;;;;;0.20;0.20;;;;;;;15.05;100.00;99539.41;5037151;28;20136;-64
2023/05/01 02:07:05;;;;;;;0.20;0.20;;;;;;;15.16;100.00;99540.16;5037590;28;20468;-63
2023/05/01 02:09:33;;;;;;;0.20;0.20;;;;;;;15.08;100.00;99550.59;5055274;28;20028;-62
2023/05/01 02:12:10;;;;;;;0.20;0.20;;;;;;;15.05;100.00;99545.81;5037040;28;20032;-63
2023/05/01 02:14:38;;;;;;;0.20;0.20;;;;;;;15.05;100.00;99540.22;5037020;28;20057;-63
2023/05/01 02:17:07;;;;;;;0.20;0.20;;;;;;;15.07;100.00;99537.78;5036974;28;20025;-63
2023/05/01 02:19:33;;;;;;;0.20;0.20;;;;;;;15.17;100.00;99525.72;5054835;28;20068;-63
2023/05/01 02:22:01;;;;;;;0.20;0.20;;;;;;;15.25;100.00;99536.91;5036932;28;20025;-63
2023/05/01 02:24:32;;;;;;;0.20;0.20;;;;;;;15.17;100.00;99530.53;5037102;28;20051;-64
2023/05/01 02:27:06;;;;;;;0.20;0.20;;;;;;;15.16;100.00;99535.34;5036773;28;20021;-62
2023/05/01 02:29:39;;;;;;;0.20;0.20;;;;;;;15.15;100.00;99522.53;5054459;28;20029;-63
2023/05/01 02:32:07;;;;;;;0.20;0.20;;;;;;;15.27;100.00;99528.88;5037259;28;20379;-63
2023/05/01 02:34:34;;;;;;;0.20;0.20;;;;;;;15.13;100.00;99524.97;5036943;28;20060;-63
2023/05/01 02:37:00;;;;;;;0.20;0.20;;;;;;;15.07;100.00;99520.97;5036521;28;20036;-63
2023/05/01 02:39:31;;;;;;;0.20;0.20;;;;;;;15.09;100.00;99517.78;5036689;28;20059;-63
2023/05/01 02:42:00;;;;;;;0.20;0.20;;;;;;;15.13;100.00;99519.34;5054290;28;20024;-63
2023/05/01 02:44:31;;;;;;;0.20;0.20;;;;;;;15.13;100.00;99519.34;5036742;28;20035;-62
2023/05/01 02:46:59;;;;;;;0.20;0.20;;;;;;;15.11;100.00;99516.16;5036282;28;20025;-63
2023/05/01 02:49:26;;;;;;;0.20;0.20;;;;;;;15.09;100.00;99512.97;5036652;28;20136;-62
2023/05/01 02:51:52;;;;;;;0.20;0.20;;;;;;;15.18;100.00;99515.34;5036423;28;20025;-63
2023/05/01 02:54:19;;;;;;;0.20;0.20;;;;;;;15.28;100.00;99513.66;5035928;28;20135;-64
2023/05/01 02:56:46;;;;;;;0.20;0.20;;;;;;;15.16;100.00;99515.72;5054575;28;20029;-64
2023/05/01 02:59:12;;;;;;;0.20;0.20;;;;;;;15.08;100.00;99505.78;5036025;28;20120;-64
2023/05/01 03:01:45;;;;;;;0.20;0.20;;;;;;;15.06;100.00;99502.56;5036071;28;20449;-63
2023/05/01 03:04:15;;;;;;;0.20;0.20;;;;;;;15.17;100.00;99506.09;5036086;28;20029;-64
2023/05/01 03:06:43;;;;;;;0.20;0.20;;;;;;;15.21;100.00;99506.09;5035877;28;20021;-64
2023/05/01 03:09:11;;;;;;;0.20;0.20;;;;;;;15.17;100.00;99505.31;5036226;28;20088;-64
2023/05/01 03:11:39;;;;;;;0.20;0.20;;;;;;;15.12;100.00;99505.75;5036396;28;20368;-64
2023/05/01 03:14:05;;;;;;;0.20;0.20;;;;;;;15.10;100.00;99500.56;5035892;28;20032;-65
2023/05/01 03:16:33;;;;;;;0.20;0.20;;;;;;;15.10;100.00;99497.75;5036427;28;20033;-64
2023/05/01 03:18:58;;;;;;;0.20;0.20;;;;;;;15.19;100.00;99497.31;5036152;28;20025;-64
2023/05/01 03:21:26;;;;;;;0.20;0.20;;;;;;;15.11;100.00;99490.94;5035739;28;20502;-64
2023/05/01 03:23:55;;;;;;;0.20;0.20;;;;;;;15.13;100.00;99496.94;5036294;28;20041;-65
2023/05/01 03:26:22;;;;;;;0.20;0.20;;;;;;;15.10;100.00;99485.75;5035617;28;20487;-64
2023/05/01 03:28:51;;;;;;;0.20;0.20;;;;;;;15.26;100.00;99491.66;5035653;28;20131;-63
2023/05/01 03:31:16;;;;;;;0.20;0.20;;;;;;;15.31;100.00;99493.22;5036169;28;20048;-64
2023/05/01 03:33:49;;;;;;;0.20;0.20;;;;;;;15.15;100.00;99483.31;5053255;28;20508;-63
2023/05/01 03:36:15;;;;;;;0.20;0.20;;;;;;;15.10;100.00;99483.75;5035689;28;20021;-64
2023/05/01 03:38:45;;;;;;;0.20;0.20;;;;;;;15.17;100.00;99482.88;5035669;28;20043;-64
2023/05/01 03:41:11;;;;;;;0.20;0.20;;;;;;;15.03;100.00;99492.22;5035857;28;20028;-65
2023/05/01 03:43:39;;;;;;;0.20;0.20;;;;;;;15.01;100.00;99482.59;5036181;28;20043;-64
2023/05/01 03:46:08;;;;;;;0.20;0.20;;;;;;;14.98;100.00;99483.44;5035523;28;20508;-63
2023/05/01 03:48:33;;;;;;;0.20;0.20;;;;;;;15.02;100.00;99485.00;5035521;28;20033;-64
2023/05/01 03:51:01;;;;;;;0.20;0.20;;;;;;;15.04;100.00;99482.59;5035587;28;20032;-63
2023/05/01 03:53:29;;;;;;;0.20;0.20;;;;;;;15.08;100.00;99482.56;5035568;28;20470;-64
2023/05/01 03:55:54;;;;;;;0.20;0.20;;;;;;;15.13;100.00;99479.34;5035385;28;20037;-63
2023/05/01 03:58:23;;;;;;;0.20;0.20;;;;;;;15.25;100.00;99484.44;5035531;28;20032;-64
2023/05/01 04:00:49;;;;;;;0.20;0.20;;;;;;;15.22;100.00;99470.44;5036043;28;20025;-65
2023/05/01 04:03:17;;;;;;;0.20;0.20;;;;;;;15.20;100.00;99473.69;5035424;28;20479;-64
2023/05/01 04:05:43;;;;;;;0.20;0.20;;;;;;;15.35;100.00;99477.19;5035363;28;20044;-63
2023/05/01 04:08:11;;;;;;;0.20;0.20;;;;;;;15.31;100.00;99468.78;5035663;28;20033;-63
2023/05/01 04:10:37;;;;;;;0.20;0.20;;;;;;;15.36;100.00;99473.16;5037955;28;20033;-62
2023/05/01 04:13:02;;;;;;;0.20;0.20;;;;;;;15.26;100.00;99472.03;5039618;28;20063;-62
2023/05/01 04:15:33;;;;;;;0.20;0.20;;;;;;;15.18;100.00;99460.09;5039335;28;20464;-65
2023/05/01 04:17:59;;;;;;;0.20;0.20;;;;;;;15.15;100.00;99471.31;5039253;28;20025;-64
2023/05/01 04:20:27;;;;;;;0.20;0.20;;;;;;;15.15;100.00;99460.91;5040034;28;20028;-64
2023/05/01 04:22:55;;;;;;;0.20;0.20;;;;;;;15.38;100.00;99465.13;5039182;28;20059;-67
2023/05/01 04:25:26;;;;;;;0.20;0.20;;;;;;;15.32;100.00;99464.78;5039090;28;20033;-64
2023/05/01 04:27:56;;;;;;;0.20;0.20;;;;;;;15.25;100.00;99464.03;5039093;28;20033;-63
2023/05/01 04:30:24;;;;;;;0.20;0.20;;;;;;;15.27;100.00;99468.00;5039360;28;20033;-63
2023/05/01 04:32:50;;;;;;;0.20;0.20;;;;;;;15.21;100.00;99464.06;5038887;28;20021;-63
2023/05/01 04:35:18;;;;;;;0.20;0.20;;;;;;;15.14;100.00;99470.50;5039192;28;20078;-65
2023/05/01 04:37:49;;;;;;;0.20;0.20;;;;;;;15.09;100.00;99462.53;5039321;28;20028;-64
2023/05/01 04:40:17;;;;;;;0.20;0.20;;;;;;;15.17;100.00;99472.47;5038132;28;20087;-63
2023/05/01 04:42:43;;;;;;;0.20;0.20;;;;;;;15.05;100.00;99470.16;5038532;28;20029;-65
2023/05/01 04:45:09;;;;;;;0.20;0.20;;;;;;;15.38;100.00;99479.94;5039129;28;20044;-63
2023/05/01 04:47:37;;;;;;;0.20;0.20;;;;;;;15.29;100.00;99465.63;5038837;28;20380;-63
2023/05/01 04:50:11;;;;;;;0.20;0.20;;;;;;;15.27;100.00;99468.00;5039360;28;20037;-63
2023/05/01 04:52:39;;;;;;;;;;;;;;;15.30;100.00;99467.19;5039829;28;20423;-63
2023/05/01 04:55:05;;;;;;;0.20;0.20;;;;;;;15.41;100.00;99470.72;5038899;28;20430;-63
2023/05/01 04:57:33;;;;;;;0.20;0.20;;;;;;;15.34;100.00;99478.34;5038747;28;20025;-64
2023/05/01 05:00:02;;;;;;;0.20;0.20;;;;;;;15.38;100.00;99470.72;5038411;28;20033;-63
2023/05/01 05:02:28;;;;;;;0.20;0.20;;;;;;;15.48;100.00;99471.84;5038430;28;20017;-63
2023/05/01 05:04:55;;;;;;;0.20;0.20;;;;;;;15.66;100.00;99476.13;5038852;28;20029;-64
2023/05/01 05:07:23;;;;;;;0.20;0.20;;;;;;;15.64;100.00;99464.53;5038393;28;20028;-64
2023/05/01 05:09:48;;;;;;;0.20;0.20;;;;;;;15.69;100.00;99475.28;5038320;28;20032;-63
2023/05/01 05:12:18;;;;;;;0.20;0.20;;;;;;;15.58;100.00;99476.56;5038370;28;20063;-62
2023/05/01 05:14:43;;;;;;;0.20;0.20;;;;;;;15.50;100.00;99483.44;5038832;28;20071;-63
2023/05/01 05:17:12;;;;;;;0.20;0.20;;;;;;;15.43;100.00;99481.50;5037968;28;20033;-65
2023/05/01 05:19:40;;;;;;;0.20;0.20;;;;;;;15.47;100.00;99482.28;5037635;28;20506;-68
2023/05/01 05:22:11;;;;;;;0.20;0.20;;;;;;;15.48;100.00;99483.06;5037817;28;20033;-63
2023/05/01 05:24:38;;;;;;;0.20;0.20;;;;;;;15.64;100.00;99478.53;5037862;28;20484;-63
2023/05/01 05:27:05;;;;;;;0.20;0.20;;;;;;;15.65;100.00;99485.75;5038051;28;20029;-64
2023/05/01 05:29:35;;;;;;;0.20;0.20;;;;;;;15.65;100.00;99480.13;5054448;28;20062;-65
2023/05/01 05:32:05;;;;;;;0.20;0.20;;;;;;;15.74;100.00;99488.06;5038043;28;20039;-63
2023/05/01 05:34:33;;;;;;;0.20;0.20;;;;;;;15.80;100.00;99489.22;5038309;28;20025;-63
2023/05/01 05:37:03;;;;;;;0.20;0.20;;;;;;;15.81;100.00;99495.63;5037726;28;20029;-63
2023/05/01 05:39:30;;;;;;;0.20;0.20;;;;;;;15.80;100.00;99508.06;5037570;28;20040;-64
2023/05/01 05:41:56;;;;;;;0.20;0.20;;;;;;;15.80;100.00;99494.03;5037720;28;20041;-63
2023/05/01 05:44:26;;;;;;;0.20;0.20;;;;;;;15.85;100.00;99502.81;5037193;28;20067;-64
2023/05/01 05:46:55;;;;;;;0.20;0.20;;;;;;;15.77;100.00;99495.69;5038275;28;20452;-63
2023/05/01 05:49:23;;;;;;;0.20;0.20;;;;;;;15.82;100.00;99506.44;5037465;28;20037;-63
2023/05/01 05:51:52;;;;;;;0.20;0.20;;;;;;;15.76;98.49;99496.06;5037238;28;20021;-63
2023/05/01 05:54:20;;;;;;;0.20;0.20;;;;;;;15.80;98.10;99505.25;5036985;28;20056;-62
2023/05/01 05:56:46;;;;;;;0.20;0.20;;;;;;;15.79;95.72;99509.28;5037294;28;20082;-63
2023/05/01 05:59:12;;;;;;;0.20;0.20;;;;;;;15.77;94.86;99506.09;5037873;28;20029;-63
2023/05/01 06:01:39;;;;;;;0.20;0.20;;;;;;;15.84;95.25;99504.00;5037465;28;20039;-63
2023/05/01 06:04:05;;;;;;;0.20;0.20;;;;;;;15.70;92.88;99501.34;5037368;28;20467;-63
2023/05/01 06:06:35;;;;;;;0.20;0.20;;;;;;;15.94;91.75;99510.75;5037649;28;20055;-63
2023/05/01 06:09:03;;;;;;;0.20;0.20;;;;;;;15.94;92.68;99505.13;5037574;28;20368;-61
2023/05/01 06:11:31;;;;;;;0.20;0.20;;;;;;;15.98;92.33;99505.91;5037362;28;20047;-61
2023/05/01 06:13:57;;;;;;;0.20;0.20;;;;;;;16.09;89.38;99512.19;5037284;28;20048;-64
2023/05/01 06:16:25;;;;;;;0.20;0.20;;;;;;;16.15;90.91;99512.53;5036964;28;20041;-63
2023/05/01 06:18:51;;;;;;;0.20;0.20;;;;;;;16.26;92.66;99520.84;5037462;28;20064;-65
2023/05/01 06:21:19;;;;;;;0.20;0.20;;;;;;;16.11;91.93;99515.38;5036903;28;20475;-65
2023/05/01 06:23:47;;;;;;;0.20;0.20;;;;;;;16.05;92.86;99516.25;5036828;28;20062;-64
2023/05/01 06:26:15;;;;;;;0.20;0.20;;;;;;;16.10;92.10;99525.00;5036612;28;20025;-65
2023/05/01 06:28:41;;;;;;;0.20;0.20;;;;;;;16.07;91.95;99530.66;5037233;28;20033;-63
2023/05/01 06:31:07;;;;;;;0.20;0.20;;;;;;;16.04;92.77;99520.28;5036586;28;20394;-63
2023/05/01 06:33:35;;;;;;;0.20;0.20;;;;;;;16.12;92.85;99528.19;5036521;28;20033;-62
2023/05/01 06:36:01;;;;;;;0.20;0.20;;;;;;;16.06;92.44;99534.66;5036498;28;20021;-63
2023/05/01 06:38:26;;;;;;;0.20;0.20;;;;;;;15.88;93.21;99504.78;5037148;28;20035;-63
2023/05/01 06:40:57;;;;;;;0.20;0.20;;;;;;;16.02;93.89;99539.50;5036542;28;20108;-62
2023/05/01 06:43:29;;;;;;;0.20;0.20;;;;;;;15.98;93.53;99534.75;5036910;28;20519;-62
2023/05/01 06:45:57;;;;;;;0.20;0.20;;;;;;;16.07;93.35;99537.06;5036343;28;20025;-62
2023/05/01 06:48:23;;;;;;;0.20;0.20;;;;;;;16.10;93.98;99530.63;5036380;28;20036;-63
2023/05/01 06:50:48;;;;;;;0.20;0.20;;;;;;;16.19;94.17;99538.53;5036253;28;20062;-63
2023/05/01 06:53:19;;;;;;;0.20;0.20;;;;;;;16.28;94.82;99538.06;5035935;28;20048;-63
2023/05/01 06:55:47;;;;;;;0.20;0.20;;;;;;;16.40;94.70;99537.50;5028703;28;20360;-64
2023/05/01 06:58:15;;;;;;;0.20;0.20;;;;;;;16.54;94.68;99548.59;5036063;28;20043;-62
2023/05/01 07:00:40;;;;;;;0.20;0.20;;;;;;;16.65;94.00;99543.66;5036341;28;20059;-62
2023/05/01 07:03:08;;;;;;;0.20;0.20;;;;;;;16.74;92.80;99541.16;5036590;28;20466;-64
2023/05/01 07:05:39;;;;;;;0.20;0.20;;;;;;;16.97;91.75;99542.47;5036193;28;20025;-65
2023/05/01 07:08:05;;;;;;;0.20;0.20;;;;;;;16.93;90.41;99536.09;5036111;28;20029;-63
2023/05/01 07:10:34;;;;;;;0.20;0.20;;;;;;;16.93;89.30;99548.13;5035971;28;20039;-63
2023/05/01 07:12:59;;;;;;;0.20;0.20;;;;;;;16.96;88.82;99549.31;5036466;28;20162;-62
2023/05/01 07:15:27;;;;;;;0.20;0.20;;;;;;;17.09;88.70;99550.34;5036206;28;20480;-62
2023/05/01 07:17:55;;;;;;;0.20;0.20;;;;;;;17.07;86.98;99552.00;5036283;28;20487;-63
2023/05/01 07:20:23;;;;;;;0.20;0.20;;;;;;;17.08;87.70;99548.75;5036112;28;20111;-62
2023/05/01 07:22:51;;;;;;;0.20;0.20;;;;;;;16.99;86.16;99554.91;5036369;28;20067;-62
2023/05/01 07:25:19;;;;;;;0.20;0.20;;;;;;;17.19;85.41;99557.81;5035846;28;20078;-63
2023/05/01 07:27:47;;;;;;;0.20;0.20;;;;;;;17.05;86.40;99560.06;5035658;28;20480;-62
2023/05/01 07:30:15;;;;;;;0.20;0.20;;;;;;;16.68;86.34;99556.88;5035758;28;20029;-63
2023/05/01 07:32:43;;;;;;;0.20;0.20;;;;;;;16.52;85.70;99567.88;5036181;28;20043;-63
2023/05/01 07:35:09;;;;;;;0.20;0.20;;;;;;;16.54;88.68;99571.06;5035005;28;20082;-63
2023/05/01 07:37:35;;;;;;;0.20;0.20;;;;;;;16.68;89.26;99570.13;5035899;28;20119;-62
2023/05/01 07:40:06;;;;;;;0.20;0.20;;;;;;;16.53;90.63;99563.84;5035476;28;20032;-65
2023/05/01 07:42:34;;;;;;;0.20;0.20;;;;;;;16.54;92.46;99581.50;5035641;28;20033;-65
2023/05/01 07:45:02;;;;;;;0.20;0.20;;;;;;;16.56;93.60;99576.25;5035596;28;20079;-63
2023/05/01 07:47:30;;;;;;;0.20;0.20;;;;;;;16.65;93.34;99570.94;5035415;28;20033;-63
2023/05/01 07:49:55;;;;;;;0.20;0.20;;;;;;;16.57;93.83;99581.47;5035535;28;20035;-63
2023/05/01 07:52:26;;;;;;;0.20;0.20;;;;;;;16.53;93.59;99580.72;5035382;28;20033;-63
2023/05/01 07:54:52;;;;;;;0.20;0.20;;;;;;;16.52;93.60;99595.16;5035512;28;20041;-64
2023/05/01 07:57:22;;;;;;;0.20;0.20;;;;;;;16.43;92.52;99593.63;5035727;28;20112;-64
2023/05/01 07:59:52;;;;;;;0.20;0.20;;;;;;;16.51;92.55;99597.16;5035616;28;20369;-64
2023/05/01 08:02:22;;;;;;;0.20;0.20;;;;;;;16.56;93.23;99598.72;5035475;28;20025;-64
2023/05/01 08:04:48;;;;;;;0.20;0.20;;;;;;;16.56;93.84;99593.88;5035768;28;20025;-63
2023/05/01 08:07:16;;;;;;;0.20;0.20;;;;;;;16.52;94.24;99603.59;5035214;28;20063;-64
2023/05/01 08:09:42;;;;;;;0.20;0.20;;;;;;;16.46;94.46;99606.06;5035303;28;20536;-63
2023/05/01 08:12:07;;;;;;;0.20;0.20;;;;;;;16.50;94.06;99593.56;5034981;28;20052;-64
2023/05/01 08:14:36;;;;;;;0.20;0.20;;;;;;;16.76;94.60;99594.91;5035519;28;20059;-63
2023/05/01 08:17:01;;;;;;;0.20;0.20;;;;;;;16.71;92.08;99597.38;5035791;28;20025;-64
2023/05/01 08:19:27;;;;;;;0.20;0.20;;;;;;;16.22;96.19;99597.44;5035348;28;20506;-63
2023/05/01 08:21:55;;;;;;;0.20;0.20;;;;;;;16.19;97.57;99592.69;5035485;28;20039;-63
2023/05/01 08:24:20;;;;;;;0.20;0.20;;;;;;;16.12;100.00;99601.16;5035396;28;20059;-65
2023/05/01 08:26:50;;;;;;;0.20;0.20;;;;;;;16.05;100.00;99590.00;5035367;28;20114;-64
2023/05/01 08:29:18;;;;;;;0.20;0.20;;;;;;;15.98;100.00;99590.06;5032881;28;20499;-63
2023/05/01 08:31:47;;;;;;;0.20;0.20;;;;;;;15.78;100.00;99597.44;5035288;28;20036;-65
2023/05/01 08:34:12;;;;;;;0.20;0.20;;;;;;;15.67;100.00;99589.91;5035014;28;20460;-65
2023/05/01 08:36:38;;;;;;;0.20;0.20;;;;;;;15.68;100.00;99599.09;5035213;28;20147;-64
2023/05/01 08:39:04;;;;;;;0.20;0.20;;;;;;;15.59;100.00;99596.72;5034729;28;20092;-67
2023/05/01 08:41:31;;;;;;;0.20;0.20;;;;;;;15.55;100.00;99598.75;5034906;28;20036;-67
2023/05/01 08:44:00;;;;;;;0.20;0.20;;;;;;;15.61;100.00;99599.94;5034800;28;20106;-67
2023/05/01 08:46:44;;;;;;;0.20;0.20;;;;;;;15.75;100.00;99603.88;5035105;28;20037;-65
2023/05/01 08:49:14;;;;;;;0.20;0.20;;;;;;;15.80;100.00;99600.63;5034899;28;20036;-64
2023/05/01 08:51:41;;;;;;;0.20;0.20;;;;;;;15.87;100.00;99608.97;5018379;28;20037;-64
2023/05/01 08:54:08;;;;;;;0.20;0.20;;;;;;;15.70;100.00;99600.28;5034289;28;20085;-66
2023/05/01 08:56:35;;;;;;;0.20;0.20;;;;;;;15.76;100.00;99605.44;5036637;28;20082;-65
2023/05/01 08:59:06;;;;;;;0.20;0.20;;;;;;;15.75;100.00;99615.09;5038535;28;20044;-65
2023/05/01 09:01:35;;;;;;;0.20;0.20;;;;;;;15.52;100.00;99596.78;5038486;28;20056;-64
2023/05/01 09:04:02;;;;;;;0.20;0.20;;;;;;;15.51;100.00;99617.63;5022616;28;20069;-64
2023/05/01 09:06:33;;;;;;;0.20;0.20;;;;;;;15.32;100.00;99613.31;5056259;28;20028;-64
2023/05/01 09:08:59;;;;;;;0.20;0.20;;;;;;;15.22;100.00;99618.97;5038422;28;20069;-64
2023/05/01 09:11:27;;;;;;;0.20;0.20;;;;;;;15.26;100.00;99614.16;5038920;28;20395;-65
2023/05/01 09:13:56;;;;;;;0.20;0.20;;;;;;;15.22;100.00;99607.75;5038362;28;20060;-64
2023/05/01 09:16:24;;;;;;;0.20;0.20;;;;;;;15.13;100.00;99614.63;5038885;28;20033;-64
2023/05/01 09:18:52;;;;;;;0.20;0.20;;;;;;;15.16;100.00;99611.00;5038546;28;20025;-64
2023/05/01 09:21:24;;;;;;;0.20;0.20;;;;;;;14.94;100.00;99615.09;5038761;28;20040;-63
2023/05/01 09:23:55;;;;;;;0.20;0.20;;;;;;;14.79;100.00;99610.75;5038486;28;20102;-64
2023/05/01 09:26:26;;;;;;;0.20;0.20;;;;;;;14.77;100.00;99613.16;5038374;28;20056;-64
2023/05/01 09:28:56;;;;;;;0.20;0.20;;;;;;;14.78;100.00;99621.16;5038345;28;20029;-64
2023/05/01 09:31:31;;;;;;;0.20;0.20;;;;;;;14.75;100.00;99621.16;5037960;28;20031;-64
2023/05/01 09:34:11;;;;;;;0.20;0.20;;;;;;;14.60;100.00;99610.03;5038064;28;20033;-63
2023/05/01 09:36:39;;;;;;;0.28;0.28;;;;;;;14.64;100.00;99602.38;5037966;28;20112;-63
2023/05/01 09:39:05;;;;;;;0.20;0.20;;;;;;;14.71;100.00;99620.38;5038175;28;20025;-64
2023/05/01 09:41:35;;;;;;;0.20;0.20;;;;;;;14.80;100.00;99613.13;5055802;28;20097;-65
2023/05/01 09:44:01;;;;;;;0.20;0.20;;;;;;;14.82;100.00;99612.75;5039334;28;20082;-65
2023/05/01 09:46:28;;;;;;;0.20;0.20;;;;;;;14.86;100.00;99610.72;5038953;28;20421;-65
2023/05/01 09:49:01;;;;;;;0.20;0.20;;;;;;;14.83;100.00;99609.53;5037927;28;20082;-65
2023/05/01 09:51:32;;;;;;;0.20;0.20;;;;;;;14.85;100.00;99609.13;5037748;28;20124;-65
2023/05/01 09:53:58;;;;;;;0.20;0.20;;;;;;;14.52;100.00;99563.63;5017844;28;20475;-64
2023/05/01 09:56:32;;;;;;;0.20;0.20;;;;;;;14.79;100.00;99611.53;5019141;28;20480;-65
2023/05/01 09:59:14;;;;;;;0.20;0.20;;;;;;;14.76;100.00;99608.78;5055499;28;20036;-65
2023/05/01 10:01:46;;;;;;;0.20;0.20;;;;;;;14.66;100.00;99602.78;5037568;28;20479;-65
2023/05/01 10:04:17;;;;;;;0.20;0.20;;;;;;;14.61;100.00;99606.00;5037736;28;20471;-65
2023/05/01 10:06:43;;;;;;;0.20;0.20;;;;;;;14.65;100.00;99606.00;5037167;28;20482;-65
2023/05/01 10:09:26;;;;;;;0.20;0.20;;;;;;;14.58;100.00;99594.81;5036843;28;20087;-64
2023/05/01 10:11:56;;;;;;;0.20;0.20;;;;;;;14.69;100.00;99601.16;5038030;28;20095;-66
2023/05/01 10:14:25;;;;;;;0.20;0.20;;;;;;;14.64;100.00;99596.78;5037586;28;20140;-65
2023/05/01 10:16:55;;;;;;;0.20;0.20;;;;;;;14.66;100.00;99596.41;5037906;28;20400;-64
2023/05/01 10:19:23;;;;;;;0.20;0.20;;;;;;;14.77;100.00;99591.56;5038509;28;20036;-65
2023/05/01 10:21:52;;;;;;;0.20;0.20;;;;;;;14.67;100.00;99593.19;5037974;28;20021;-65
2023/05/01 10:24:21;;;;;;;0.20;0.20;;;;;;;14.67;100.00;99593.19;5054961;28;20033;-65
2023/05/01 10:26:48;;;;;;;0.20;0.20;;;;;;;14.75;100.00;99593.16;5055204;28;20476;-65
2023/05/01 10:29:16;;;;;;;0.20;0.20;;;;;;;14.75;100.00;99590.34;5037000;28;20029;-66
2023/05/01 10:31:42;;;;;;;0.20;0.20;;;;;;;14.76;100.00;99591.97;5036916;28;20471;-66
2023/05/01 10:34:08;;;;;;;0.20;0.20;;;;;;;14.80;100.00;99587.94;5036546;28;20051;-66
2023/05/01 10:36:38;;;;;;;0.20;0.20;;;;;;;14.76;100.00;99591.97;5021053;28;20032;-68
2023/05/01 10:39:04;;;;;;;0.20;0.20;;;;;;;14.76;100.00;99583.56;5037067;28;20029;-64
2023/05/01 10:41:57;;;;;;;0.20;0.20;;;;;;;14.85;100.00;99592.31;5036958;28;20025;-66
2023/05/01 10:44:27;;;;;;;0.20;0.20;;;;;;;14.80;100.00;99582.31;5036650;28;20029;-67
2023/05/01 10:46:53;;;;;;;0.20;0.20;;;;;;;14.77;100.00;99582.38;5054770;28;20036;-64
2023/05/01 10:49:20;;;;;;;0.20;0.20;;;;;;;14.91;100.00;99571.09;5036845;28;20487;-65
2023/05/01 10:52:15;;;;;;;0.20;0.20;;;;;;;14.92;100.00;99575.50;5036589;28;20563;-66
2023/05/01 10:54:43;;;;;;;0.20;0.20;;;;;;;14.95;100.00;99563.47;5033797;28;20045;-66
2023/05/01 10:57:43;;;;;;;0.20;0.20;;;;;;;15.07;100.00;99559.41;5036481;28;20033;-65
2023/05/01 11:00:09;;;;;;;0.20;0.20;;;;;;;15.29;100.00;99568.50;5036379;28;20475;-66
2023/05/01 11:02:44;;;;;;;0.20;0.20;;;;;;;15.34;100.00;99562.44;5036369;28;20112;-65
2023/05/01 11:05:16;;;;;;;0.20;0.20;;;;;;;15.50;100.00;99559.13;5036451;28;20507;-65
2023/05/01 11:07:41;;;;;;;0.20;0.20;;;;;;;15.60;100.00;99547.06;5036302;28;20021;-64
2023/05/01 11:10:27;;;;;;;0.20;0.20;;;;;;;15.89;100.00;99556.06;5036268;28;20033;-66
2023/05/01 11:12:58;;;;;;;0.20;0.20;;;;;;;16.04;100.00;99554.75;5035945;28;20111;-64
2023/05/01 11:15:32;;;;;;;0.20;0.20;;;;;;;16.10;100.00;99561.50;5035986;28;20096;-66
2023/05/01 11:18:00;;;;;;;0.20;0.20;;;;;;;16.18;100.00;99560.19;5036404;28;20032;-66
2023/05/01 11:20:25;;;;;;;0.20;0.20;;;;;;;15.88;100.00;99557.28;5035650;28;20029;-66
2023/05/01 11:23:01;;;;;;;0.20;0.20;;;;;;;15.88;100.00;99557.28;5036021;28;20029;-67
2023/05/01 11:25:31;;;;;;;0.20;0.20;;;;;;;15.87;100.00;99569.69;5035887;28;20455;-66
2023/05/01 11:28:00;;;;;;;0.20;0.20;;;;;;;15.89;100.00;99559.66;5053593;28;20392;-67
2023/05/01 11:30:36;;;;;;;0.20;0.20;;;;;;;16.08;100.00;99560.28;5035951;28;20517;-66
2023/05/01 11:33:04;;;;;;;0.20;0.20;;;;;;;16.15;100.00;99555.44;5053775;28;20467;-64
2023/05/01 11:35:34;;;;;;;0.20;0.20;;;;;;;16.27;100.00;99562.53;5036079;28;20102;-64
2023/05/01 11:38:04;;;;;;;0.20;0.20;;;;;;;16.37;100.00;99555.22;5036684;28;20411;-65